Champion, NE (69023)

12:22 AM MDT on September 01, 2015 (GMT -0600)
Imperial Municipal | | Change Station
CLOSE
Current Station
Airport
Location: Imperial,
Elevation: 3274 ft
Nearby Weather Stations

Elev 3274 ft 40.51 °N, 101.62 °W | Updated 29 minutes ago

Mostly Cloudy
Mostly Cloudy
70 °F
Feels Like 70 °F
N
13
Wind Variable Wind from NW

Today
High -- | Low -- °F
--% Chance of Precip.
Yesterday
High -- | Low -- °F
Precip. -- in
6:14 AM 7:19 PM
Waning Gibbous, 91% visible
Pressure 29.88 in
Visibility 10.0 miles
Clouds Few 11000 ft
Dew Point 60 °F
Humidity 71%
Rainfall 0.00 in
Snow Depth Not available.
UV 0 out of 12
Pollen 10.20 out of 12
Air Quality Not available.
Flu Activity Not available.
METAR KIML 010553Z AUTO 31011KT 10SM FEW110 21/16 A2999 RMK AO2 LTG DSNT N AND W SLP116 T02110156 10300 20211 50015
Pressure 29.88 in
Visibility 10.0 miles
Clouds Few 11000 ft
Dew Point 60 °F
Humidity 71%
Rainfall 0.00 in
Snow Depth Not available.
UV 0 out of 12
Pollen 10.20 out of 12
Air Quality Not available.
Flu Activity Not available.
METAR KIML 010553Z AUTO 31011KT 10SM FEW110 21/16 A2999 RMK AO2 LTG DSNT N AND W SLP116 T02110156 10300 20211 50015
Nowcast | as of 10:00 PM CDT on August 31, 2015

Scattered thunderstorms in northeast Colorado will continue making their way across southwest Nebraska. At their current movement and assuming they can remain intact in the meantime...the storms should reach North Platte near 2 am CDT and Broken Bow about 3 am CDT. Meanwhile...areas of heavy rain can be expected along with gusty wind and small hail of less than half an inch in diameter in the area along and south of Nebraska Highway 2.

×

10-Day Weather Forecast

×

Almanac

Astronomy

Sep. 01, 2015 Rise Set
Actual Time
Civil Twilight
Nautical Twilight
Astronomical Twilight
Moon
Length of Visible Light
Length of Day
Tomorrow will be .
, % of the Moon is Illuminated

Today's Extremes

State Highs State Lows

Community

WunderPhotos

Upload Photos

1,851,488 photos uploaded!

WunderBlogs® & News

Nearby

Air Quality

  Air Quality AQ Index Pollutant
Not available.

Snow Depth

Station Depth Elevation

Earthquake Activity

City Distance Mag. Time & Date
Minimum magnitude displayed is 2.5.

Coastal Water Temperatures

Place Temperature

Stations

Nearby Weather Stations

Station Location Temp. Windchill Dew Point Humidity Wind Precip. Elev Updated Type